createdAt,value
2022-09-23T00:01:05.161Z,4.86
2022-09-23T00:03:32.400Z,4.82
2022-09-23T00:06:01.175Z,4.94
2022-09-23T00:08:28.897Z,5.24
2022-09-23T00:10:56.032Z,4.88
2022-09-23T00:13:25.501Z,4.83
2022-09-23T00:15:52.309Z,4.86
2022-09-23T00:18:19.307Z,4.98
2022-09-23T00:20:45.763Z,4.75
2022-09-23T00:23:12.612Z,5.00
2022-09-23T00:25:39.068Z,4.96
2022-09-23T00:28:05.504Z,4.81
2022-09-23T00:30:32.001Z,5.27
2022-09-23T00:32:58.458Z,4.99
2022-09-23T00:35:24.912Z,4.79
2022-09-23T00:37:51.491Z,5.13
2022-09-23T00:40:18.080Z,4.87
2022-09-23T00:42:49.600Z,4.96
2022-09-23T00:45:19.412Z,4.97
2022-09-23T00:48:01.736Z,5.18
2022-09-23T00:50:34.643Z,4.90
2022-09-23T00:53:06.529Z,5.19
2022-09-23T00:55:34.399Z,5.03
2022-09-23T00:58:04.592Z,5.15
2022-09-23T01:00:31.204Z,5.04
2022-09-23T01:02:57.653Z,5.03
2022-09-23T01:05:24.123Z,5.00
2022-09-23T01:07:50.973Z,4.93
2022-09-23T01:10:17.963Z,5.16
2022-09-23T01:13:16.175Z,5.05
2022-09-23T01:15:57.590Z,5.26
2022-09-23T01:19:06.426Z,4.87
2022-09-23T01:21:44.204Z,5.05
2022-09-23T01:24:37.578Z,5.09
2022-09-23T01:27:22.940Z,5.19
2022-09-23T01:30:31.262Z,5.18
2022-09-23T01:33:12.838Z,5.10
2022-09-23T01:35:57.649Z,5.29
2022-09-23T01:38:34.332Z,5.19
2022-09-23T01:41:35.340Z,5.36
2022-09-23T01:44:29.665Z,5.09
2022-09-23T01:47:08.112Z,5.10
2022-09-23T01:50:03.204Z,4.96
2022-09-23T01:52:44.471Z,5.31
2022-09-23T01:55:18.348Z,5.28
2022-09-23T01:57:53.077Z,5.17
2022-09-23T02:00:23.901Z,5.17
2022-09-23T02:03:07.119Z,5.41
2022-09-23T02:05:38.908Z,5.30
2022-09-23T02:09:00.914Z,5.25
2022-09-23T02:11:27.960Z,5.17
2022-09-23T02:14:22.295Z,5.16
2022-09-23T02:16:53.887Z,5.37
2022-09-23T02:19:44.392Z,5.38
2022-09-23T02:22:28.095Z,5.52
2022-09-23T02:24:57.592Z,5.59
2022-09-23T02:27:29.703Z,5.35
2022-09-23T02:30:09.654Z,5.24
2022-09-23T02:32:52.962Z,5.48
2022-09-23T02:35:34.778Z,5.46
2022-09-23T02:38:43.552Z,5.37
2022-09-23T02:41:25.391Z,5.68
2022-09-23T02:44:08.699Z,5.28
2022-09-23T02:46:36.755Z,5.33
2022-09-23T02:49:11.891Z,5.56
2022-09-23T02:51:41.616Z,5.76
2022-09-23T02:54:13.161Z,5.58
2022-09-23T02:56:40.570Z,5.51
2022-09-23T02:59:09.730Z,5.67
2022-09-23T03:01:57.036Z,5.51
2022-09-23T03:04:35.646Z,5.82
2022-09-23T03:07:23.531Z,6.03
2022-09-23T03:10:04.212Z,5.83
2022-09-23T03:12:55.953Z,5.70
2022-09-23T03:15:30.718Z,5.85
2022-09-23T03:18:17.307Z,5.69
2022-09-23T03:20:57.996Z,5.96
2022-09-23T03:23:33.021Z,5.96
2022-09-23T03:26:07.650Z,5.94
2022-09-23T03:28:42.184Z,6.43
2022-09-23T03:31:10.121Z,6.37
2022-09-23T03:33:41.891Z,6.30
2022-09-23T03:36:14.370Z,6.28
2022-09-23T03:38:48.656Z,6.26
2022-09-23T03:41:26.813Z,6.25
2022-09-23T03:43:53.700Z,6.17
2022-09-23T03:46:20.134Z,6.12
2022-09-23T03:48:46.613Z,6.23
2022-09-23T03:51:22.486Z,6.07
2022-09-23T03:53:50.429Z,6.46
2022-09-23T03:56:16.977Z,6.27
2022-09-23T03:58:43.494Z,6.20
2022-09-23T04:01:09.970Z,6.67
2022-09-23T04:03:36.447Z,6.37
2022-09-23T04:06:02.894Z,6.48
2022-09-23T04:08:29.332Z,6.68
2022-09-23T04:11:00.356Z,6.87
2022-09-23T04:13:34.891Z,6.73
2022-09-23T04:16:01.647Z,6.46
2022-09-23T04:18:28.171Z,6.53
2022-09-23T04:20:59.024Z,6.93
2022-09-23T04:23:26.957Z,6.83
2022-09-23T04:25:53.812Z,6.62
2022-09-23T04:28:21.900Z,6.80
2022-09-23T04:30:49.009Z,7.10
2022-09-23T04:33:16.588Z,7.00
2022-09-23T04:35:43.258Z,7.04
2022-09-23T04:38:12.234Z,7.00
2022-09-23T04:40:39.032Z,7.42
2022-09-23T04:43:05.562Z,7.09
2022-09-23T04:45:32.049Z,7.13
2022-09-23T04:47:58.538Z,7.12
2022-09-23T04:50:26.164Z,6.91
2022-09-23T04:52:53.404Z,6.73
2022-09-23T04:55:20.388Z,6.90
2022-09-23T04:57:47.018Z,7.22
2022-09-23T05:00:14.251Z,6.95
2022-09-23T05:02:48.813Z,7.31
2022-09-23T05:05:16.768Z,7.25
2022-09-23T05:07:43.203Z,7.13
2022-09-23T05:10:09.754Z,7.14
2022-09-23T05:12:36.210Z,7.09
2022-09-23T05:15:02.852Z,7.28
2022-09-23T05:17:29.302Z,7.14
2022-09-23T05:19:55.765Z,7.28
2022-09-23T05:22:22.234Z,6.95
2022-09-23T05:24:48.698Z,7.14
2022-09-23T05:27:15.154Z,7.07
2022-09-23T05:29:41.612Z,7.23
2022-09-23T05:32:08.064Z,7.17
2022-09-23T05:34:34.524Z,6.90
2022-09-23T05:37:01.221Z,7.46
2022-09-23T05:39:27.664Z,7.58
2022-09-23T05:41:54.103Z,7.64
2022-09-23T05:44:20.825Z,7.56
2022-09-23T05:46:47.543Z,7.65
2022-09-23T05:49:14.033Z,7.74
2022-09-23T05:51:40.484Z,7.86
2022-09-23T05:54:07.164Z,7.67
2022-09-23T05:56:34.636Z,7.65
2022-09-23T05:59:02.351Z,7.81
2022-09-23T06:01:32.752Z,7.88
2022-09-23T06:04:00.466Z,8.06
2022-09-23T06:06:28.771Z,8.82
2022-09-23T06:08:55.301Z,8.51
2022-09-23T06:11:21.983Z,8.24
2022-09-23T06:13:48.416Z,8.37
2022-09-23T06:16:16.284Z,8.39
2022-09-23T06:18:45.159Z,7.88
2022-09-23T06:21:16.625Z,8.68
2022-09-23T06:23:44.653Z,9.05
2022-09-23T06:26:14.071Z,9.16
2022-09-23T06:28:42.025Z,8.82
2022-09-23T06:31:13.737Z,8.48
2022-09-23T06:33:42.301Z,8.28
2022-09-23T06:36:10.308Z,8.23
2022-09-23T06:38:41.811Z,8.02
2022-09-23T06:41:08.237Z,8.37
2022-09-23T06:43:34.711Z,8.88
2022-09-23T06:46:04.066Z,8.88
2022-09-23T06:48:32.369Z,9.03
2022-09-23T06:51:00.527Z,9.15
2022-09-23T06:53:26.976Z,8.62
2022-09-23T06:56:03.628Z,8.49
2022-09-23T06:58:31.747Z,9.18
2022-09-23T07:01:07.733Z,8.57
2022-09-23T07:03:35.508Z,8.51
2022-09-23T07:06:02.356Z,8.02
2022-09-23T07:08:30.551Z,8.09
2022-09-23T07:10:59.438Z,7.91
2022-09-23T07:13:27.192Z,7.79
2022-09-23T07:15:58.369Z,8.04
2022-09-23T07:18:26.573Z,7.55
2022-09-23T07:20:53.851Z,6.98
2022-09-23T07:23:20.725Z,7.18
2022-09-23T07:25:47.519Z,7.20
2022-09-23T07:28:13.997Z,6.83
2022-09-23T07:30:51.377Z,6.73
2022-09-23T07:33:30.499Z,6.78
2022-09-23T07:35:58.459Z,6.99
2022-09-23T07:38:25.020Z,6.64
2022-09-23T07:40:51.511Z,6.82
2022-09-23T07:43:17.992Z,6.82
2022-09-23T07:45:44.464Z,6.77
2022-09-23T07:48:10.930Z,7.02
2022-09-23T07:50:39.259Z,6.55
2022-09-23T07:53:05.695Z,5.90
2022-09-23T07:55:32.170Z,5.95
2022-09-23T07:58:00.038Z,6.58
2022-09-23T08:00:26.490Z,6.70
2022-09-23T08:02:53.295Z,6.14
2022-09-23T08:05:19.815Z,6.13
2022-09-23T08:07:46.242Z,6.27
2022-09-23T08:10:12.681Z,6.21
2022-09-23T08:12:39.190Z,6.04
2022-09-23T08:15:06.146Z,6.07
2022-09-23T08:17:32.604Z,6.37
2022-09-23T08:19:59.053Z,6.82
2022-09-23T08:22:25.531Z,6.04
2022-09-23T08:24:53.196Z,5.93
2022-09-23T08:27:20.988Z,5.93
2022-09-23T08:29:47.434Z,6.49
2022-09-23T08:32:13.867Z,7.15
2022-09-23T08:34:40.392Z,7.04
2022-09-23T08:37:10.391Z,6.28
2022-09-23T08:39:36.874Z,6.02
2022-09-23T08:42:19.529Z,6.89
2022-09-23T08:44:54.958Z,6.01
2022-09-23T08:47:32.085Z,4.78
2022-09-23T08:50:28.844Z,4.58
2022-09-23T08:52:59.736Z,4.83
2022-09-23T08:55:39.023Z,5.47
2022-09-23T08:58:33.049Z,6.12
2022-09-23T09:01:11.293Z,5.43
2022-09-23T09:04:00.948Z,4.97
2022-09-23T09:06:51.794Z,5.15
2022-09-23T09:09:25.737Z,5.88
2022-09-23T09:12:23.574Z,5.59
2022-09-23T09:15:07.427Z,4.71
2022-09-23T09:17:40.155Z,5.17
2022-09-23T09:20:15.777Z,5.25
2022-09-23T09:23:15.593Z,5.95
2022-09-23T09:25:49.386Z,4.89
2022-09-23T09:28:15.777Z,4.97
2022-09-23T09:30:48.324Z,5.03
2022-09-23T09:33:19.175Z,4.90
2022-09-23T09:36:01.475Z,4.84
2022-09-23T09:38:28.291Z,4.60
2022-09-23T09:41:01.905Z,4.57
2022-09-23T09:43:28.389Z,5.16
2022-09-23T09:46:32.690Z,5.26
2022-09-23T09:49:08.923Z,4.98
2022-09-23T09:51:35.535Z,5.09
2022-09-23T09:54:22.658Z,5.03
2022-09-23T09:56:49.398Z,4.84
2022-09-23T09:59:24.011Z,4.34
2022-09-23T10:02:21.585Z,5.04
2022-09-23T10:04:57.569Z,4.92
2022-09-23T10:07:28.172Z,5.46
2022-09-23T10:09:58.296Z,5.66
2022-09-23T10:12:46.668Z,6.10
2022-09-23T10:15:44.926Z,5.57
2022-09-23T10:18:20.095Z,5.06
2022-09-23T10:20:48.040Z,5.79
2022-09-23T10:23:28.432Z,5.71
2022-09-23T10:26:02.057Z,4.65
2022-09-23T10:28:46.864Z,5.40
2022-09-23T10:31:24.669Z,5.51
2022-09-23T10:34:03.639Z,5.19
2022-09-23T10:36:33.261Z,5.33
2022-09-23T10:39:05.033Z,4.94
2022-09-23T10:41:42.129Z,5.45
2022-09-23T10:44:20.108Z,5.01
2022-09-23T10:47:29.779Z,5.11
2022-09-23T10:50:29.475Z,5.30
2022-09-23T10:53:06.636Z,5.56
2022-09-23T10:56:01.581Z,5.56
2022-09-23T10:58:33.592Z,5.78
2022-09-23T11:01:38.795Z,5.53
2022-09-23T11:04:34.322Z,5.08
2022-09-23T11:07:27.260Z,4.71
2022-09-23T11:10:35.284Z,5.40
2022-09-23T11:13:05.494Z,5.72
2022-09-23T11:15:44.523Z,5.67
2022-09-23T11:18:28.622Z,5.99
2022-09-23T11:21:31.283Z,5.09
2022-09-23T11:24:03.704Z,4.85
2022-09-23T11:26:55.033Z,5.23
2022-09-23T11:29:36.034Z,5.01
2022-09-23T11:32:05.420Z,4.94
2022-09-23T11:34:59.280Z,5.21
2022-09-23T11:37:37.083Z,5.22
2022-09-23T11:40:35.127Z,5.10
2022-09-23T11:43:09.792Z,5.36
2022-09-23T11:45:58.744Z,4.98
2022-09-23T11:48:35.851Z,5.43
2022-09-23T11:51:14.731Z,6.17
2022-09-23T11:53:59.671Z,5.16
2022-09-23T11:56:41.627Z,4.96
2022-09-23T11:59:39.214Z,5.07
2022-09-23T12:02:31.353Z,4.88
2022-09-23T12:05:16.179Z,4.97
2022-09-23T12:07:52.221Z,5.13
2022-09-23T12:10:20.050Z,5.05
2022-09-23T12:12:52.766Z,4.84
2022-09-23T12:15:22.291Z,5.12
2022-09-23T12:18:07.808Z,5.03
2022-09-23T12:20:49.091Z,4.61
2022-09-23T12:23:21.597Z,5.05
2022-09-23T12:25:57.409Z,5.19
2022-09-23T12:28:38.494Z,5.06
2022-09-23T12:31:12.627Z,5.21
2022-09-23T12:33:40.024Z,5.22
2022-09-23T12:36:10.362Z,5.34
2022-09-23T12:38:49.294Z,4.95
2022-09-23T12:41:38.481Z,5.28
2022-09-23T12:44:07.670Z,4.83
2022-09-23T12:46:34.230Z,4.94
2022-09-23T12:49:03.317Z,4.69
2022-09-23T12:51:35.042Z,4.69
2022-09-23T12:54:04.180Z,5.22
2022-09-23T12:56:36.721Z,4.54
2022-09-23T12:59:09.100Z,4.62
2022-09-23T13:01:38.373Z,4.53
2022-09-23T13:04:05.599Z,4.40
2022-09-23T13:06:40.874Z,4.57
2022-09-23T13:09:26.319Z,4.26
2022-09-23T13:11:59.945Z,4.31
2022-09-23T13:14:29.860Z,4.23
2022-09-23T13:16:57.957Z,4.05
2022-09-23T13:19:27.048Z,4.00
2022-09-23T13:21:53.447Z,4.05
2022-09-23T13:24:22.795Z,4.15
2022-09-23T13:27:03.331Z,3.77
2022-09-23T13:29:45.117Z,3.96
2022-09-23T13:32:14.891Z,4.02
2022-09-23T13:34:44.223Z,3.94
2022-09-23T13:37:24.296Z,3.66
2022-09-23T13:39:51.209Z,3.73
2022-09-23T13:42:28.067Z,3.44
2022-09-23T13:44:57.643Z,3.71
2022-09-23T13:47:29.383Z,3.58
2022-09-23T13:49:57.276Z,3.66
2022-09-23T13:52:31.672Z,3.54
2022-09-23T13:54:58.374Z,3.59
2022-09-23T13:57:29.083Z,3.44
2022-09-23T14:00:00.820Z,3.46
2022-09-23T14:02:27.796Z,3.35
2022-09-23T14:04:57.991Z,3.46
2022-09-23T14:07:25.740Z,3.57
2022-09-23T14:09:55.511Z,3.09
2022-09-23T14:12:22.718Z,3.28
2022-09-23T14:14:52.766Z,3.42
2022-09-23T14:17:22.418Z,3.55
2022-09-23T14:19:51.572Z,3.16
2022-09-23T14:22:27.409Z,3.30
2022-09-23T14:24:56.235Z,2.94
2022-09-23T14:27:30.507Z,3.34
2022-09-23T14:29:58.649Z,3.16
2022-09-23T14:32:27.138Z,3.53
2022-09-23T14:35:16.089Z,3.37
2022-09-23T14:37:46.379Z,3.31
2022-09-23T14:40:17.872Z,3.35
2022-09-23T14:43:07.911Z,3.17
2022-09-23T14:45:38.540Z,3.12
2022-09-23T14:48:35.043Z,3.03
2022-09-23T14:51:06.044Z,3.07
2022-09-23T14:53:36.679Z,3.18
2022-09-23T14:56:05.877Z,3.06
2022-09-23T14:58:51.957Z,2.93
2022-09-23T15:01:30.824Z,3.19
2022-09-23T15:04:21.615Z,3.01
2022-09-23T15:06:51.585Z,3.00
2022-09-23T15:09:31.066Z,3.10
2022-09-23T15:12:01.819Z,3.19
2022-09-23T15:14:39.469Z,3.21
2022-09-23T15:17:35.797Z,3.03
2022-09-23T15:20:06.616Z,3.35
2022-09-23T15:22:43.939Z,3.41
2022-09-23T15:25:34.772Z,3.23
2022-09-23T15:28:10.274Z,3.45
2022-09-23T15:30:37.912Z,3.32
2022-09-23T15:33:05.191Z,3.16
2022-09-23T15:35:32.323Z,3.50
2022-09-23T15:38:01.424Z,3.50
2022-09-23T15:40:34.198Z,3.40
2022-09-23T15:43:10.269Z,3.39
2022-09-23T15:45:43.006Z,3.54
2022-09-23T15:48:24.108Z,3.84
2022-09-23T15:50:51.497Z,3.43
2022-09-23T15:53:27.281Z,3.59
2022-09-23T15:55:53.937Z,3.76
2022-09-23T15:58:22.273Z,3.57
2022-09-23T16:00:55.680Z,3.72
2022-09-23T16:03:24.280Z,3.85
2022-09-23T16:05:51.439Z,3.65
2022-09-23T16:08:17.875Z,3.63
2022-09-23T16:10:44.332Z,3.28
2022-09-23T16:13:13.069Z,3.46
2022-09-23T16:15:40.441Z,3.22
2022-09-23T16:18:09.368Z,3.64
2022-09-23T16:20:38.820Z,3.32
2022-09-23T16:23:21.884Z,3.32
2022-09-23T16:25:48.359Z,3.46
2022-09-23T16:28:14.797Z,3.53
2022-09-23T16:30:41.241Z,3.18
2022-09-23T16:33:07.690Z,3.29
2022-09-23T16:35:34.207Z,3.81
2022-09-23T16:38:00.635Z,3.40
2022-09-23T16:40:27.254Z,3.46
2022-09-23T16:42:53.760Z,3.58
2022-09-23T16:45:21.845Z,3.48
2022-09-23T16:47:50.520Z,4.26
2022-09-23T16:50:20.146Z,4.20
2022-09-23T16:52:46.647Z,4.16
2022-09-23T16:55:14.677Z,4.10
2022-09-23T16:57:41.611Z,4.03
2022-09-23T17:00:13.877Z,3.91
2022-09-23T17:02:40.405Z,3.98
2022-09-23T17:05:07.197Z,4.25
2022-09-23T17:07:33.752Z,4.08
2022-09-23T17:10:00.241Z,4.17
2022-09-23T17:12:32.726Z,3.70
2022-09-23T17:14:59.301Z,3.79
2022-09-23T17:17:25.773Z,3.75
2022-09-23T17:19:52.206Z,3.98
2022-09-23T17:22:18.707Z,3.96
2022-09-23T17:24:45.188Z,4.14
2022-09-23T17:27:11.655Z,4.23
2022-09-23T17:29:38.111Z,4.50
2022-09-23T17:32:04.557Z,4.26
2022-09-23T17:34:31.001Z,4.07
2022-09-23T17:36:57.441Z,4.02
2022-09-23T17:39:23.880Z,4.54
2022-09-23T17:41:50.322Z,4.56
2022-09-23T17:44:16.879Z,4.32
2022-09-23T17:46:43.306Z,3.96
2022-09-23T17:49:09.830Z,3.65
2022-09-23T17:51:36.465Z,3.61
2022-09-23T17:54:02.915Z,3.63
2022-09-23T17:56:29.374Z,4.03
2022-09-23T17:59:00.284Z,4.11
2022-09-23T18:01:27.192Z,4.08
2022-09-23T18:03:55.577Z,4.80
2022-09-23T18:06:24.958Z,5.27
2022-09-23T18:08:51.993Z,4.22
2022-09-23T18:11:24.478Z,4.38
2022-09-23T18:13:53.986Z,4.53
2022-09-23T18:16:23.318Z,4.74
2022-09-23T18:18:51.187Z,5.00
2022-09-23T18:21:17.680Z,4.86
2022-09-23T18:23:44.128Z,4.89
2022-09-23T18:26:20.766Z,5.22
2022-09-23T18:28:48.497Z,5.33
2022-09-23T18:31:16.088Z,5.60
2022-09-23T18:33:42.595Z,5.23
2022-09-23T18:36:09.304Z,5.26
2022-09-23T18:38:35.763Z,5.01
2022-09-23T18:41:02.324Z,5.44
2022-09-23T18:43:37.288Z,6.00
2022-09-23T18:46:10.787Z,5.27
2022-09-23T18:48:37.369Z,5.36
2022-09-23T18:51:06.290Z,5.69
2022-09-23T18:53:32.753Z,5.55
2022-09-23T18:55:59.187Z,5.79
2022-09-23T18:58:25.631Z,5.42
2022-09-23T19:00:52.169Z,5.10
2022-09-23T19:03:18.704Z,5.13
2022-09-23T19:05:45.178Z,5.26
2022-09-23T19:08:11.626Z,5.31
2022-09-23T19:10:38.075Z,5.23
2022-09-23T19:13:04.518Z,5.08
2022-09-23T19:15:31.063Z,5.11
2022-09-23T19:17:57.514Z,5.10
2022-09-23T19:20:23.948Z,6.16
2022-09-23T19:22:50.391Z,6.25
2022-09-23T19:25:16.929Z,6.77
2022-09-23T19:27:43.366Z,6.90
2022-09-23T19:30:10.279Z,7.21
2022-09-23T19:32:36.718Z,6.15
2022-09-23T19:35:03.188Z,6.04
2022-09-23T19:37:29.640Z,5.56
2022-09-23T19:39:56.102Z,5.63
2022-09-23T19:42:22.568Z,5.68
2022-09-23T19:44:49.010Z,5.94
2022-09-23T19:47:15.644Z,6.05
2022-09-23T19:49:42.166Z,6.23
2022-09-23T19:52:08.635Z,6.65
2022-09-23T19:54:35.152Z,6.45
2022-09-23T19:57:01.582Z,5.93
2022-09-23T19:59:28.042Z,5.89
2022-09-23T20:01:54.565Z,5.38
2022-09-23T20:04:21.288Z,4.34
2022-09-23T20:06:47.771Z,4.28
2022-09-23T20:09:14.207Z,4.70
2022-09-23T20:11:40.738Z,4.75
2022-09-23T20:14:07.229Z,4.92
2022-09-23T20:16:35.739Z,4.93
2022-09-23T20:19:03.062Z,4.84
2022-09-23T20:21:30.398Z,4.76
2022-09-23T20:23:57.467Z,5.15
2022-09-23T20:26:24.288Z,5.19
2022-09-23T20:28:51.063Z,5.65
2022-09-23T20:31:19.420Z,5.72
2022-09-23T20:33:50.371Z,5.55
2022-09-23T20:36:16.860Z,5.58
2022-09-23T20:38:43.328Z,5.34
2022-09-23T20:41:09.891Z,5.38
2022-09-23T20:43:36.355Z,5.25
2022-09-23T20:46:04.076Z,5.32
2022-09-23T20:48:31.327Z,5.27
2022-09-23T20:51:02.190Z,4.97
2022-09-23T20:53:28.669Z,5.47
2022-09-23T20:55:57.095Z,5.29
2022-09-23T20:58:31.280Z,5.06
2022-09-23T21:01:02.061Z,5.11
2022-09-23T21:03:33.230Z,4.84
2022-09-23T21:06:01.554Z,4.67
2022-09-23T21:08:28.028Z,4.69
2022-09-23T21:10:59.418Z,4.83
2022-09-23T21:13:25.862Z,4.53
2022-09-23T21:15:52.380Z,4.49
2022-09-23T21:18:22.388Z,4.57
2022-09-23T21:20:56.978Z,4.96
2022-09-23T21:23:24.928Z,4.95
2022-09-23T21:25:51.726Z,5.02
2022-09-23T21:28:18.265Z,4.78
2022-09-23T21:30:48.517Z,4.93
2022-09-23T21:33:17.601Z,4.71
2022-09-23T21:35:44.378Z,4.83
2022-09-23T21:38:10.841Z,4.47
2022-09-23T21:40:37.333Z,4.69
2022-09-23T21:43:03.803Z,4.98
2022-09-23T21:45:30.233Z,4.91
2022-09-23T21:47:56.685Z,4.93
2022-09-23T21:50:23.116Z,4.93
2022-09-23T21:52:49.554Z,4.62
2022-09-23T21:55:16.082Z,4.24
2022-09-23T21:57:42.532Z,4.40
2022-09-23T22:00:09.480Z,4.57
2022-09-23T22:02:35.923Z,4.24
2022-09-23T22:05:02.442Z,4.54
2022-09-23T22:07:28.862Z,4.49
2022-09-23T22:09:55.326Z,4.60
2022-09-23T22:12:21.768Z,4.85
2022-09-23T22:14:48.202Z,4.87
2022-09-23T22:17:14.654Z,4.91
2022-09-23T22:19:45.944Z,4.70
2022-09-23T22:22:16.180Z,4.88
2022-09-23T22:24:44.391Z,5.07
2022-09-23T22:27:13.040Z,5.20
2022-09-23T22:29:39.662Z,5.25
2022-09-23T22:32:11.205Z,5.26
2022-09-23T22:34:49.495Z,4.85
2022-09-23T22:37:19.804Z,5.09
2022-09-23T22:39:46.988Z,4.88
2022-09-23T22:42:13.436Z,4.73
2022-09-23T22:44:39.903Z,4.52
2022-09-23T22:47:06.770Z,4.65
2022-09-23T22:49:33.318Z,4.84
2022-09-23T22:51:59.966Z,4.93
2022-09-23T22:54:33.724Z,4.78
2022-09-23T22:57:01.352Z,4.72
2022-09-23T22:59:27.908Z,4.53
2022-09-23T23:01:54.361Z,4.00
2022-09-23T23:04:20.840Z,4.16
2022-09-23T23:06:47.298Z,4.09
2022-09-23T23:09:16.530Z,4.25
2022-09-23T23:11:43.499Z,4.41
2022-09-23T23:14:10.862Z,4.55
2022-09-23T23:16:37.855Z,4.41
2022-09-23T23:19:13.013Z,4.47
2022-09-23T23:21:41.194Z,4.41
2022-09-23T23:24:15.172Z,4.24
2022-09-23T23:26:41.695Z,4.64
2022-09-23T23:29:10.995Z,4.57
2022-09-23T23:31:37.904Z,4.64
2022-09-23T23:34:04.998Z,4.74
2022-09-23T23:36:31.447Z,4.70
2022-09-23T23:38:58.268Z,5.04
2022-09-23T23:41:24.800Z,4.76
2022-09-23T23:43:59.981Z,4.82
2022-09-23T23:46:28.481Z,4.84
2022-09-23T23:48:56.453Z,4.87
2022-09-23T23:51:24.261Z,4.88
2022-09-23T23:53:50.720Z,4.72
2022-09-23T23:56:19.960Z,4.47
2022-09-23T23:58:46.511Z,4.68
